Řízení letového provozu České republiky  
Aktualizace dat:  28.11.2021 00:09:28 UTC English version
   METEO Zobrazení stránky:  28.11.2021 00:11:11 UTC  
vysvětlivky
METAR EDDB 272350Z 20005KT 9999 BKN048 02/02 Q0995 TEMPO 2500 BR=
METAR EDDC 272350Z 25005KT 220V290 9999 SCT008 BKN027 01/00 Q0995=
METAR EDDE 272350Z 21006KT 9999 SCT038 M01/M03 Q0995=
METAR EDDF 272350Z 18004KT 160V220 9999 SCT018 BKN024 02/00 Q0995 NOSIG=
METAR EDDM 272350Z 13001KT CAVOK M00/M01 Q0996 NOSIG=
METAR EDDN 272350Z 10008KT CAVOK M02/M02 Q0996=
METAR EDDP 272350Z 18007KT CAVOK 01/M00 Q0995 NOSIG=
METAR EDQM 272350Z AUTO 20005KT 8000 // BKN003/// BKN005/// M01/M01 Q0995=
METAR EPBY 280000Z 15004KT 100V190 3000 BR OVC003 01/M00 Q0996=
METAR EPGD 280000Z VRB02KT 9999 FEW026 SCT031 BKN036 01/M00 Q0995=
METAR EPKK 280000Z VRB02KT 4000 BR FEW007 OVC033 02/02 Q0997=
METAR EPKT 280000Z 22008KT 6000 SCT004 BKN006 OVC007 02/01 Q0997=
METAR EPLL 280000Z VRB01KT 3100 BR BKN003 00/M00 Q0997=
METAR EPPO 280000Z 17006KT 5000 BR SCT033 01/00 Q0996=
METAR EPRZ 280000Z VRB01KT 9999 BKN048 01/M00 Q0999=
METAR EPWA 280000Z 14003KT 8000 NSC M01/M01 Q0998 TEMPO 4000 BR=
METAR EPWR 280000Z 13006KT CAVOK M02/M02 Q0996=
METAR LHBP 280000Z 07004KT 5000 BR OVC004 04/04 Q0998 NOSIG=
METAR LHSM 272345Z AUTO VRB02KT 3400 BR OVC002 05/05 Q0997=
METAR LKBC NIL
METAR LKCV 280000Z 14005KT CAVOK 01/M01 Q0996 NOSIG RMK BLU BLU=
METAR LKKB 280000Z 12003KT 080V140 CAVOK 01/M01 Q0996 RMK BLU=
METAR LKKU NIL
METAR LKKV 280000Z 27005KT 9999 SCT008 BKN013 M00/M01 Q0995 RMK REG QNH 0993=
METAR LKLN 280000Z AUTO 24004KT 9999 BKN034 OVC200 02/M00 Q0996=
METAR LKMT 280000Z 26003KT 230V290 4800 BR BKN006 01/01 Q0998 NOSIG RMK REG QNH 0993=
METAR LKNA 280000Z 14002KT 0200 R12/0600D FZFG VV002 M01/M01 Q0997 RMK RED=
METAR LKPD 280000Z 10005KT CAVOK 00/M01 Q0997 RMK BLACK=
METAR LKPJ 280000Z AUTO 30002KT 3600 BR OVC014/// 00/M00 Q0998=
METAR LKPR 280000Z 17005KT 9999 FEW024 01/M01 Q0995 NOSIG RMK REG QNH 0993=
METAR LKTB 280000Z 06003KT 040V120 7000 OVC013 01/M01 Q0998 NOSIG RMK REG QNH 0993=
METAR LKVO NIL
METAR LOWI 272350Z AUTO 26002KT 2400 SN FEW003 SCT008 BKN012 00/M00 Q0995=
METAR LOWL 272350Z AUTO 05002KT 4500 BR BKN060 M00/M00 Q0997 TEMPO 2000 BCFG=
METAR LOWS 272350Z AUTO 20003KT 9999 FEW044 BKN050 01/00 Q0996=
METAR LOWW 272350Z VRB01KT 7000 FEW005 BKN009 01/M00 Q0998 NOSIG=
METAR LZIB 280000Z 36003KT 2800 BR BKN002 BKN003 03/03 Q0998=
METAR LZKZ 280000Z 36004KT 9000 -RA BKN009 OVC020 03/02 Q0999=
METAR LZMC NIL
METAR LZPP 280000Z AUTO 36003KT 2000 BR OVC008/// 03/03 Q0998=
METAR LZSL NIL
METAR LZTT 280000Z 23003KT 9999 FEW003 SCT036 M00/M01 Q0997=
METAR LZZI 280000Z VRB01KT 4200 BR BKN006 OVC021 02/01 Q0997=